LFOB/BVA METAR and TAF weather

Enter ICAO airport designator
Station Type Date Time Source
LFOB METAR 2022/11/26 09:00 UTC NOAA

LFOB 260900Z AUTO 14002KT 5000 BR NSC 05/04 Q1030 TEMPO 0500 VV///


Station Type Date Time Source
LFOB Decoded METAR 2022/11/26 09:00 UTC NOAA

Beauvais, France (LFOB) 49-28N 002-07E 111M
Nov 26, 2022 - 04:00 AM EST / 2022.11.26 0900 UTC
Wind: from the SE (140 degrees) at 2 MPH (2 KT):0
Visibility: 3 mile(s):0
Weather: mist
Temperature: 41 F (5 C)
Dew Point: 39 F (4 C)
Relative Humidity: 93%
Pressure (altimeter): 30.42 in. Hg (1030 hPa)
ob: LFOB 260900Z AUTO 14002KT 5000 BR NSC 05/04 Q1030 TEMPO 0500 VV///
cycle: 9

Station Type Date Time Source
LFOB TAF 2022/11/26 08:57 UTC NOAA

TAF
AMD TAF
AMD LFOB 260849Z 2608/2706 VRB03KT CAVOK
TEMPO 2608/2610 3000 BR
BECMG 2610/2612 18010KT PROB30
TEMPO 2612/2622 BKN007
BECMG 2703/2706 4000 RA BKN040

Example: see airport list